Bootsie B, — WDF9484 — position and weather

sailwx.info

Track history (hours):
 
Tides and Currents Weather Stations Pressure Air Temp Water Temp Dewpoint Dewpoint Depression Visibility Wind Speed Wind Dir Waves Ship Positions

Bootsie B,

Owner: Marquette Transp[ortation Co. LLC, Paducah, KY. More information available from US FCC via Universal Licensing System and Coast Guard Vessel Documentation Center.

Last reported at 2017-Aug-18 04:38 UTC. Time now 2017-Aug-19 01:37 UTC.
Position N 30°19' W 091°09'.

Length 57 m; draft 3.4 m.

Type: Towing. MMSI: 367505630.

Date/timePositionNaut miles runAvg speedWind from/ knotsBaromVisibWave heightAir tempDewpointWater temp
2017-Aug-18 04:38N 30°19' W 091°09'2 6.1
2017-Aug-18 04:14N 30°19' W 091°11'1 6.1
2017-Aug-18 04:00N 30°19' W 091°13'  
2017-Aug-13 17:04N 31°60' W 091°05'1 9.0
2017-Aug-13 17:00N 32°00' W 091°05'5 8.3
2017-Aug-13 16:27N 32°05' W 091°04'3 7.4
2017-Aug-13 16:00N 32°08' W 091°06'4 8.7
2017-Aug-13 15:30N 32°08' W 091°01'5 9.4
2017-Aug-13 15:00N 32°12' W 090°59'5 9.1
2017-Aug-13 14:30N 32°16' W 090°57'4 8.8
2017-Aug-13 14:00N 32°20' W 090°54'4 8.2
2017-Aug-13 13:30N 32°21' W 090°59'4 7.3
2017-Aug-13 13:00N 32°25' W 090°59'4 8.9
2017-Aug-13 12:30N 32°27' W 091°04'4 8.3
2017-Aug-13 12:00N 32°30' W 091°07'4 8.7
2017-Aug-13 11:30N 32°34' W 091°07'4 8.8
2017-Aug-13 11:00N 32°38' W 091°09'  
Track history (hours):
 
Tides and Currents Weather Stations Pressure Air Temp Water Temp Dewpoint Dewpoint Depression Visibility Wind Speed Wind Dir Waves Ship Positions

Bootsie B,

Owner: Marquette Transp[ortation Co. LLC, Paducah, KY. More information available from US FCC via Universal Licensing System and Coast Guard Vessel Documentation Center.

Last reported at 2017-Aug-18 04:38 UTC. Time now 2017-Aug-19 01:37 UTC.
Position N 30°19' W 091°09'.

Length 57 m; draft 3.4 m.

Type: Towing. MMSI: 367505630.

Date/timePositionNaut miles runAvg speedWind from/ knotsBaromVisibWave heightAir tempDewpointWater temp
2017-Aug-18 04:38N 30°19' W 091°09'2 6.1
2017-Aug-18 04:14N 30°19' W 091°11'1 6.1
2017-Aug-18 04:00N 30°19' W 091°13'  
2017-Aug-13 17:04N 31°60' W 091°05'1 9.0
2017-Aug-13 17:00N 32°00' W 091°05'5 8.3
2017-Aug-13 16:27N 32°05' W 091°04'3 7.4
2017-Aug-13 16:00N 32°08' W 091°06'4 8.7
2017-Aug-13 15:30N 32°08' W 091°01'5 9.4
2017-Aug-13 15:00N 32°12' W 090°59'5 9.1
2017-Aug-13 14:30N 32°16' W 090°57'4 8.8
2017-Aug-13 14:00N 32°20' W 090°54'4 8.2
2017-Aug-13 13:30N 32°21' W 090°59'4 7.3
2017-Aug-13 13:00N 32°25' W 090°59'4 8.9
2017-Aug-13 12:30N 32°27' W 091°04'4 8.3
2017-Aug-13 12:00N 32°30' W 091°07'4 8.7
2017-Aug-13 11:30N 32°34' W 091°07'4 8.8
2017-Aug-13 11:00N 32°38' W 091°09'  

Dump ship's entire track history